createdAt,value
2023-03-19T00:00:02.056Z,100593.81
2023-03-19T00:02:32.837Z,100598.25
2023-03-19T00:05:03.517Z,100592.91
2023-03-19T00:07:34.108Z,100579.06
2023-03-19T00:10:07.724Z,100603.19
2023-03-19T00:12:38.517Z,100598.38
2023-03-19T00:15:14.781Z,100599.66
2023-03-19T00:17:45.808Z,100578.25
2023-03-19T00:20:18.438Z,100599.53
2023-03-19T00:22:49.087Z,100568.78
2023-03-19T00:25:22.192Z,100597.91
2023-03-19T00:27:54.410Z,100605.28
2023-03-19T00:30:25.700Z,100601.22
2023-03-19T00:32:56.477Z,100607.00
2023-03-19T00:35:27.155Z,100607.88
2023-03-19T00:37:58.093Z,100605.69
2023-03-19T00:40:31.476Z,100611.91
2023-03-19T00:43:02.176Z,100617.84
2023-03-19T00:45:33.272Z,100609.97
2023-03-19T00:48:03.898Z,100606.28
2023-03-19T00:50:34.549Z,100611.06
2023-03-19T00:53:05.119Z,100611.53
2023-03-19T00:55:38.472Z,100607.56
2023-03-19T00:58:10.325Z,100605.97
2023-03-19T01:00:42.142Z,100589.13
2023-03-19T01:03:13.389Z,100564.78
2023-03-19T01:05:44.169Z,100599.81
2023-03-19T01:08:15.406Z,100604.72
2023-03-19T01:10:50.081Z,100597.31
2023-03-19T01:13:20.765Z,100574.59
2023-03-19T01:15:56.187Z,100595.88
2023-03-19T01:18:27.201Z,100606.28
2023-03-19T01:20:58.337Z,100598.75
2023-03-19T01:23:29.819Z,100608.22
2023-03-19T01:26:03.161Z,100604.09
2023-03-19T01:28:34.510Z,100600.41
2023-03-19T01:31:09.002Z,100601.75
2023-03-19T01:33:59.783Z,100604.13
2023-03-19T01:36:37.861Z,100595.25
2023-03-19T01:39:11.801Z,100592.78
2023-03-19T01:41:45.738Z,100596.00
2023-03-19T01:44:38.492Z,100597.47
2023-03-19T01:47:34.102Z,100593.50
2023-03-19T01:50:32.021Z,100582.66
2023-03-19T01:53:22.695Z,100567.75
2023-03-19T01:56:00.011Z,100589.91
2023-03-19T01:58:47.114Z,100586.34
2023-03-19T02:01:37.773Z,100588.72
2023-03-19T02:04:09.093Z,100597.03
2023-03-19T02:06:42.991Z,100588.16
2023-03-19T02:09:14.234Z,100592.91
2023-03-19T02:11:45.210Z,100589.22
2023-03-19T02:14:18.338Z,100590.56
2023-03-19T02:16:49.203Z,100587.75
2023-03-19T02:19:25.245Z,100590.84
2023-03-19T02:21:56.729Z,100569.81
2023-03-19T02:24:32.956Z,100575.16
2023-03-19T02:27:11.857Z,100594.09
2023-03-19T02:29:48.375Z,100590.13
2023-03-19T02:32:20.048Z,100596.75
2023-03-19T02:34:50.999Z,100593.34
2023-03-19T02:37:25.514Z,100586.09
2023-03-19T02:40:01.747Z,100596.91
2023-03-19T02:42:34.829Z,100598.38
2023-03-19T02:45:06.029Z,100580.19
2023-03-19T02:47:36.541Z,100550.63
2023-03-19T02:50:07.964Z,100592.03
2023-03-19T02:52:38.453Z,100594.38
2023-03-19T02:55:10.226Z,100578.75
2023-03-19T02:57:43.349Z,100584.63
2023-03-19T03:00:17.328Z,100583.16
2023-03-19T03:02:47.978Z,100586.84
2023-03-19T03:05:18.780Z,100590.56
2023-03-19T03:07:50.699Z,100584.94
2023-03-19T03:10:21.649Z,100593.94
2023-03-19T03:12:55.036Z,100598.25
2023-03-19T03:15:25.687Z,100594.56
2023-03-19T03:17:57.022Z,100587.59
2023-03-19T03:20:27.865Z,100596.91
2023-03-19T03:22:58.719Z,100589.22
2023-03-19T03:25:29.167Z,100590.84
2023-03-19T03:28:02.746Z,100598.09
2023-03-19T03:30:33.705Z,100597.97
2023-03-19T03:33:04.617Z,100599.00
2023-03-19T03:35:35.339Z,100602.22
2023-03-19T03:38:06.788Z,100541.94
2023-03-19T03:40:37.679Z,100542.97
2023-03-19T03:43:11.182Z,100605.63
2023-03-19T03:45:41.940Z,100552.75
2023-03-19T03:48:12.966Z,100615.56
2023-03-19T03:50:44.080Z,100622.06
2023-03-19T03:53:18.960Z,100610.97
2023-03-19T03:55:49.835Z,100608.00
2023-03-19T03:58:27.133Z,100622.78
2023-03-19T04:00:58.020Z,100618.66
2023-03-19T04:03:28.875Z,100611.72
2023-03-19T04:05:59.450Z,100618.22
2023-03-19T04:08:30.381Z,100606.09
2023-03-19T04:11:01.196Z,100614.38
2023-03-19T04:13:36.900Z,100565.16
2023-03-19T04:16:11.146Z,100615.41
2023-03-19T04:18:41.724Z,100609.63
2023-03-19T04:21:12.552Z,100617.19
2023-03-19T04:23:43.292Z,100617.75
2023-03-19T04:26:14.042Z,100616.28
2023-03-19T04:28:47.451Z,100603.88
2023-03-19T04:31:18.325Z,100609.78
2023-03-19T04:33:49.488Z,100603.13
2023-03-19T04:36:20.438Z,100597.22
2023-03-19T04:38:51.627Z,100607.44
2023-03-19T04:41:23.301Z,100600.34
2023-03-19T04:44:15.421Z,100606.84
2023-03-19T04:46:47.334Z,100599.59
2023-03-19T04:49:20.942Z,100568.09
2023-03-19T04:51:52.446Z,100612.44
2023-03-19T04:54:23.667Z,100616.59
2023-03-19T04:56:54.781Z,100599.31
2023-03-19T04:59:30.670Z,100615.72
2023-03-19T05:02:01.793Z,100615.09
2023-03-19T05:04:33.042Z,100612.16
2023-03-19T05:07:09.632Z,100602.97
2023-03-19T05:09:42.199Z,100608.28
2023-03-19T05:12:14.222Z,100616.88
2023-03-19T05:14:52.353Z,100610.69
2023-03-19T05:17:33.579Z,100616.25
2023-03-19T05:20:25.382Z,100605.94
2023-03-19T05:23:02.916Z,100609.19
2023-03-19T05:25:41.932Z,100615.41
2023-03-19T05:28:15.067Z,100611.69
2023-03-19T05:30:49.341Z,100612.72
2023-03-19T05:33:40.496Z,100604.59
2023-03-19T05:36:12.718Z,100616.22
2023-03-19T05:38:53.447Z,100604.13
2023-03-19T05:41:30.238Z,100580.91
2023-03-19T05:44:05.646Z,100619.47
2023-03-19T05:47:13.105Z,100619.31
2023-03-19T05:49:50.104Z,100616.75
2023-03-19T05:52:21.425Z,100622.34
2023-03-19T05:54:53.107Z,100615.97
2023-03-19T05:57:35.878Z,100623.78
2023-03-19T06:00:28.676Z,100618.41
2023-03-19T06:03:01.983Z,100626.53
2023-03-19T06:05:42.710Z,100629.63
2023-03-19T06:08:28.856Z,100629.03
2023-03-19T06:11:05.209Z,100638.16
2023-03-19T06:13:37.549Z,100631.16
2023-03-19T06:16:11.743Z,100629.78
2023-03-19T06:18:48.544Z,100636.28
2023-03-19T06:21:20.941Z,100640.09
2023-03-19T06:23:51.753Z,100649.00
2023-03-19T06:26:28.579Z,100660.22
2023-03-19T06:29:01.798Z,100654.28
2023-03-19T06:31:32.412Z,100657.06
2023-03-19T06:34:15.849Z,100652.94
2023-03-19T06:36:47.039Z,100652.78
2023-03-19T06:39:20.177Z,100661.09
2023-03-19T06:41:50.716Z,100669.66
2023-03-19T06:44:25.265Z,100666.41
2023-03-19T06:46:56.088Z,100662.41
2023-03-19T06:49:30.042Z,100667.84
2023-03-19T06:52:00.699Z,100656.28
2023-03-19T06:54:31.386Z,100655.06
2023-03-19T06:57:02.113Z,100657.84
2023-03-19T06:59:32.723Z,100661.19
2023-03-19T07:02:03.326Z,100656.53
2023-03-19T07:04:36.620Z,100653.69
2023-03-19T07:07:07.278Z,100664.84
2023-03-19T07:09:37.720Z,100679.38
2023-03-19T07:12:08.872Z,100679.97
2023-03-19T07:14:39.442Z,100680.25
2023-03-19T07:17:10.695Z,100671.50
2023-03-19T07:19:44.084Z,100677.06
2023-03-19T07:22:15.002Z,100683.75
2023-03-19T07:24:45.821Z,100683.59
2023-03-19T07:27:16.596Z,100689.34
2023-03-19T07:29:47.152Z,100666.81
2023-03-19T07:32:18.002Z,100699.47
2023-03-19T07:34:51.898Z,100698.72
2023-03-19T07:37:22.682Z,100702.75
2023-03-19T07:39:53.804Z,100706.00
2023-03-19T07:42:24.821Z,100706.00
2023-03-19T07:44:55.532Z,100680.44
2023-03-19T07:47:29.240Z,100691.09
2023-03-19T07:50:02.764Z,100714.06
2023-03-19T07:52:33.210Z,100705.38
2023-03-19T07:55:04.027Z,100706.81
2023-03-19T07:57:34.536Z,100711.66
2023-03-19T08:00:05.324Z,100715.19
2023-03-19T08:02:44.165Z,100712.78
2023-03-19T08:05:17.686Z,100709.53
2023-03-19T08:07:49.562Z,100711.03
2023-03-19T08:10:20.511Z,100699.91
2023-03-19T08:12:51.084Z,100708.47
2023-03-19T08:15:21.768Z,100710.31
2023-03-19T08:17:52.382Z,100708.38
2023-03-19T08:20:25.885Z,100715.38
2023-03-19T08:22:56.537Z,100716.41
2023-03-19T08:25:27.672Z,100711.22
2023-03-19T08:27:58.200Z,100714.41
2023-03-19T08:30:28.984Z,100715.28
2023-03-19T08:33:00.158Z,100721.22
2023-03-19T08:35:33.684Z,100723.50
2023-03-19T08:38:04.214Z,100723.25
2023-03-19T08:40:35.052Z,100716.94
2023-03-19T08:43:06.833Z,100715.03
2023-03-19T08:45:37.336Z,100707.41
2023-03-19T08:48:08.371Z,100718.25
2023-03-19T08:50:41.904Z,100713.47
2023-03-19T08:53:12.321Z,100675.03
2023-03-19T08:55:44.056Z,100720.06
2023-03-19T08:58:14.693Z,100724.13
2023-03-19T09:00:45.080Z,100722.50
2023-03-19T09:03:15.836Z,100722.75
2023-03-19T09:05:49.733Z,100727.31
2023-03-19T09:08:20.502Z,100725.03
2023-03-19T09:10:51.595Z,100719.09
2023-03-19T09:13:22.261Z,100723.13
2023-03-19T09:15:53.511Z,100729.56
2023-03-19T09:18:24.912Z,100724.13
2023-03-19T09:20:58.284Z,100722.84
2023-03-19T09:23:29.113Z,100721.44
2023-03-19T09:25:59.741Z,100717.19
2023-03-19T09:28:30.155Z,100731.69
2023-03-19T09:31:07.061Z,100717.47
2023-03-19T09:33:37.614Z,100727.28
2023-03-19T09:36:11.585Z,100731.69
2023-03-19T09:38:42.168Z,100727.44
2023-03-19T09:41:20.968Z,100721.09
2023-03-19T09:44:03.164Z,100724.31
2023-03-19T09:46:40.638Z,100722.56
2023-03-19T09:49:23.987Z,100728.56
2023-03-19T09:51:59.846Z,100704.78
2023-03-19T09:54:34.078Z,100727.56
2023-03-19T09:57:04.761Z,100732.81
2023-03-19T09:59:36.082Z,100719.09
2023-03-19T10:02:31.928Z,100735.69
2023-03-19T10:05:13.438Z,100735.38
2023-03-19T10:08:11.379Z,100732.63
2023-03-19T10:10:51.891Z,100736.22
2023-03-19T10:13:33.313Z,100738.09
2023-03-19T10:16:05.787Z,100730.69
2023-03-19T10:18:39.688Z,100729.28
2023-03-19T10:21:18.001Z,100725.81
2023-03-19T10:23:56.220Z,100738.53
2023-03-19T10:26:34.601Z,100743.63
2023-03-19T10:29:11.245Z,100741.00
2023-03-19T10:31:47.249Z,100738.03
2023-03-19T10:34:33.087Z,100739.88
2023-03-19T10:37:05.959Z,100741.41
2023-03-19T10:39:42.542Z,100734.94
2023-03-19T10:42:34.810Z,100746.28
2023-03-19T10:45:13.131Z,100746.50
2023-03-19T10:47:46.241Z,100706.59
2023-03-19T10:50:22.091Z,100749.69
2023-03-19T10:53:08.648Z,100723.84
2023-03-19T10:55:51.206Z,100742.41
2023-03-19T10:58:29.041Z,100739.22
2023-03-19T11:01:02.399Z,100739.88
2023-03-19T11:03:35.310Z,100746.09
2023-03-19T11:06:20.096Z,100742.78
2023-03-19T11:08:58.119Z,100732.28
2023-03-19T11:11:48.538Z,100746.06
2023-03-19T11:14:23.685Z,100749.16
2023-03-19T11:17:03.448Z,100746.63
2023-03-19T11:19:37.190Z,100731.63
2023-03-19T11:22:21.148Z,100740.06
2023-03-19T11:24:54.680Z,100742.53
2023-03-19T11:27:36.077Z,100735.28
2023-03-19T11:30:16.701Z,100745.34
2023-03-19T11:33:09.162Z,100744.47
2023-03-19T11:35:44.950Z,100728.13
2023-03-19T11:38:22.245Z,100744.63
2023-03-19T11:41:02.231Z,100743.34
2023-03-19T11:43:49.915Z,100749.09
2023-03-19T11:46:39.124Z,100749.09
2023-03-19T11:49:34.746Z,100741.88
2023-03-19T11:52:15.859Z,100742.66
2023-03-19T11:54:55.454Z,100740.53
2023-03-19T11:57:35.582Z,100732.66
2023-03-19T12:00:25.994Z,100731.50
2023-03-19T12:03:11.768Z,100734.28
2023-03-19T12:05:52.807Z,100742.63
2023-03-19T12:08:34.810Z,100729.63
2023-03-19T12:11:19.370Z,100744.44
2023-03-19T12:14:05.061Z,100741.22
2023-03-19T12:16:55.532Z,100739.41
2023-03-19T12:19:46.159Z,100737.59
2023-03-19T12:22:27.379Z,100736.88
2023-03-19T12:25:19.449Z,100743.16
2023-03-19T12:27:57.421Z,100714.66
2023-03-19T12:30:37.189Z,100736.59
2023-03-19T12:33:27.331Z,100746.41
2023-03-19T12:36:02.174Z,100734.84
2023-03-19T12:38:39.348Z,100739.50
2023-03-19T12:41:14.455Z,100736.88
2023-03-19T12:43:52.241Z,100741.63
2023-03-19T12:46:30.078Z,100727.63
2023-03-19T12:49:09.279Z,100732.13
2023-03-19T12:51:43.332Z,100734.59
2023-03-19T12:54:17.666Z,100719.41
2023-03-19T12:56:56.007Z,100737.53
2023-03-19T12:59:35.705Z,100734.81
2023-03-19T13:02:19.285Z,100732.78
2023-03-19T13:04:58.157Z,100736.00
2023-03-19T13:07:34.359Z,100744.06
2023-03-19T13:10:10.004Z,100714.06
2023-03-19T13:12:41.994Z,100759.59
2023-03-19T13:15:17.367Z,100750.41
2023-03-19T13:17:59.186Z,100732.72
2023-03-19T13:20:48.504Z,100683.41
2023-03-19T13:23:25.103Z,100735.91
2023-03-19T13:25:59.631Z,100704.97
2023-03-19T13:28:33.632Z,100737.00
2023-03-19T13:31:07.162Z,100739.75
2023-03-19T13:33:40.300Z,100729.13
2023-03-19T13:36:17.445Z,100730.56
2023-03-19T13:38:51.788Z,100736.66
2023-03-19T13:41:52.533Z,100740.31
2023-03-19T13:44:38.984Z,100745.34
2023-03-19T13:47:42.526Z,100738.72
2023-03-19T13:50:52.837Z,100736.03
2023-03-19T13:53:37.960Z,100730.53
2023-03-19T13:56:28.633Z,100737.91
2023-03-19T13:59:27.982Z,100746.22
2023-03-19T14:01:58.696Z,100734.28
2023-03-19T14:04:31.375Z,100738.81
2023-03-19T14:07:14.220Z,100742.00
2023-03-19T14:09:49.616Z,100741.69
2023-03-19T14:12:34.932Z,100731.06
2023-03-19T14:15:18.137Z,100733.38
2023-03-19T14:17:58.563Z,100724.66
2023-03-19T14:20:37.575Z,100741.56
2023-03-19T14:23:39.026Z,100738.69
2023-03-19T14:26:23.196Z,100737.56
2023-03-19T14:29:00.469Z,100719.91
2023-03-19T14:31:44.442Z,100736.00
2023-03-19T14:34:23.608Z,100732.38
2023-03-19T14:37:01.470Z,100731.53
2023-03-19T14:39:35.019Z,100735.50
2023-03-19T14:42:11.558Z,100711.06
2023-03-19T14:45:23.736Z,100732.97
2023-03-19T14:48:08.893Z,100740.00
2023-03-19T14:51:03.888Z,100737.06
2023-03-19T14:53:42.419Z,100732.94
2023-03-19T14:56:17.807Z,100730.06
2023-03-19T14:58:56.996Z,100732.47
2023-03-19T15:01:29.697Z,100736.97
2023-03-19T15:04:03.784Z,100731.44
2023-03-19T15:06:36.093Z,100732.31
2023-03-19T15:09:10.495Z,100738.56
2023-03-19T15:12:04.518Z,100736.59
2023-03-19T15:14:51.793Z,100731.63
2023-03-19T15:17:27.149Z,100739.47
2023-03-19T15:19:59.323Z,100664.00
2023-03-19T15:22:33.162Z,100737.38
2023-03-19T15:25:08.996Z,100739.81
2023-03-19T15:27:40.217Z,100737.06
2023-03-19T15:30:29.264Z,100743.41
2023-03-19T15:33:11.958Z,100733.03
2023-03-19T15:35:44.238Z,100741.84
2023-03-19T15:38:20.190Z,100742.75
2023-03-19T15:40:51.772Z,100719.88
2023-03-19T15:43:23.590Z,100735.22
2023-03-19T15:45:58.289Z,100744.94
2023-03-19T15:48:37.947Z,100740.66
2023-03-19T15:51:11.964Z,100715.59
2023-03-19T15:53:43.074Z,100755.56
2023-03-19T15:56:17.777Z,100752.72
2023-03-19T15:58:53.299Z,100748.25
2023-03-19T16:01:27.221Z,100754.75
2023-03-19T16:04:02.400Z,100758.72
2023-03-19T16:06:35.574Z,100757.84
2023-03-19T16:09:24.784Z,100672.53
2023-03-19T16:11:57.202Z,100768.31
2023-03-19T16:14:30.468Z,100739.69
2023-03-19T16:17:14.705Z,100729.16
2023-03-19T16:19:56.175Z,100769.84
2023-03-19T16:22:31.245Z,100761.88
2023-03-19T16:25:06.948Z,100781.28
2023-03-19T16:27:40.288Z,100784.63
2023-03-19T16:30:22.555Z,100784.25
2023-03-19T16:33:04.567Z,100780.13
2023-03-19T16:35:37.964Z,100789.28
2023-03-19T16:38:16.540Z,100788.16
2023-03-19T16:40:49.191Z,100773.16
2023-03-19T16:43:22.511Z,100785.56
2023-03-19T16:45:54.763Z,100787.53
2023-03-19T16:48:27.955Z,100780.09
2023-03-19T16:50:58.783Z,100787.44
2023-03-19T16:53:33.363Z,100794.72
2023-03-19T16:56:05.448Z,100791.56
2023-03-19T16:58:42.624Z,100789.69
2023-03-19T17:01:19.575Z,100796.28
2023-03-19T17:03:54.107Z,100799.47
2023-03-19T17:06:25.546Z,100802.75
2023-03-19T17:08:56.100Z,100804.06
2023-03-19T17:11:31.138Z,100811.66
2023-03-19T17:14:02.502Z,100808.00
2023-03-19T17:16:33.262Z,100813.84
2023-03-19T17:19:09.334Z,100818.78
2023-03-19T17:21:39.881Z,100816.78
2023-03-19T17:24:24.313Z,100825.16
2023-03-19T17:26:55.737Z,100828.31
2023-03-19T17:29:26.415Z,100826.31
2023-03-19T17:32:00.331Z,100834.66
2023-03-19T17:34:35.987Z,100840.28
2023-03-19T17:37:07.226Z,100838.13
2023-03-19T17:39:37.728Z,100842.81
2023-03-19T17:42:19.776Z,100844.09
2023-03-19T17:44:50.347Z,100849.81
2023-03-19T17:47:21.904Z,100840.97
2023-03-19T17:49:55.420Z,100847.41
2023-03-19T17:52:26.217Z,100846.25
2023-03-19T17:54:56.788Z,100849.47
2023-03-19T17:57:27.337Z,100744.50
2023-03-19T17:59:57.866Z,100846.03
2023-03-19T18:02:31.665Z,100852.00
2023-03-19T18:05:04.823Z,100856.78
2023-03-19T18:07:35.381Z,100858.47
2023-03-19T18:10:06.153Z,100857.44
2023-03-19T18:12:36.718Z,100862.63
2023-03-19T18:15:08.400Z,100862.00
2023-03-19T18:17:39.248Z,100873.16
2023-03-19T18:20:15.807Z,100878.22
2023-03-19T18:22:46.232Z,100880.88
2023-03-19T18:25:19.115Z,100879.22
2023-03-19T18:27:52.056Z,100881.75
2023-03-19T18:30:24.974Z,100890.09
2023-03-19T18:32:58.990Z,100884.13
2023-03-19T18:35:34.440Z,100885.81
2023-03-19T18:38:05.035Z,100885.66
2023-03-19T18:40:36.289Z,100889.59
2023-03-19T18:43:07.327Z,100886.03
2023-03-19T18:45:38.074Z,100883.50
2023-03-19T18:48:22.116Z,100894.78
2023-03-19T18:50:56.335Z,100876.19
2023-03-19T18:53:29.035Z,100891.09
2023-03-19T18:56:00.805Z,100898.69
2023-03-19T18:58:31.633Z,100901.00
2023-03-19T19:01:04.596Z,100908.59
2023-03-19T19:03:36.988Z,100904.03
2023-03-19T19:06:10.600Z,100906.56
2023-03-19T19:08:41.577Z,100882.47
2023-03-19T19:11:15.000Z,100909.88
2023-03-19T19:13:55.742Z,100904.25
2023-03-19T19:16:35.826Z,100909.31
2023-03-19T19:19:06.585Z,100914.22
2023-03-19T19:21:39.722Z,100914.09
2023-03-19T19:24:11.115Z,100918.91
2023-03-19T19:26:41.732Z,100926.53
2023-03-19T19:29:21.332Z,100930.44
2023-03-19T19:31:54.094Z,100934.59
2023-03-19T19:34:26.720Z,100934.38
2023-03-19T19:37:00.527Z,100939.44
2023-03-19T19:39:31.383Z,100940.03
2023-03-19T19:42:01.999Z,100944.09
2023-03-19T19:44:32.740Z,100944.56
2023-03-19T19:47:07.471Z,100942.81
2023-03-19T19:49:39.780Z,100945.34
2023-03-19T19:52:17.377Z,100947.34
2023-03-19T19:54:48.632Z,100953.03
2023-03-19T19:57:22.882Z,100963.91
2023-03-19T19:59:55.464Z,100950.75
2023-03-19T20:02:28.564Z,100961.22
2023-03-19T20:04:59.576Z,100963.50
2023-03-19T20:07:32.737Z,100962.00
2023-03-19T20:10:03.823Z,100971.22
2023-03-19T20:12:35.978Z,100958.47
2023-03-19T20:15:07.082Z,100961.75
2023-03-19T20:17:37.754Z,100971.72
2023-03-19T20:20:20.061Z,100966.53
2023-03-19T20:22:53.574Z,100974.00
2023-03-19T20:25:26.453Z,100973.75
2023-03-19T20:27:59.589Z,100986.25
2023-03-19T20:30:33.570Z,100975.88
2023-03-19T20:33:04.731Z,100951.22
2023-03-19T20:35:38.440Z,100977.44
2023-03-19T20:38:14.260Z,100984.16
2023-03-19T20:40:47.765Z,100972.13
2023-03-19T20:43:28.282Z,100989.09
2023-03-19T20:46:00.173Z,100983.03
2023-03-19T20:48:31.064Z,100982.59
2023-03-19T20:51:03.132Z,100983.97
2023-03-19T20:53:36.370Z,100981.16
2023-03-19T20:56:09.652Z,100985.19
2023-03-19T20:58:40.136Z,100978.66
2023-03-19T21:01:12.009Z,100994.03
2023-03-19T21:03:42.519Z,100995.66
2023-03-19T21:06:18.654Z,100996.31
2023-03-19T21:08:57.230Z,100986.72
2023-03-19T21:11:42.466Z,101001.56
2023-03-19T21:14:18.435Z,101001.03
2023-03-19T21:16:48.972Z,100997.19
2023-03-19T21:19:19.766Z,101004.63
2023-03-19T21:21:50.902Z,101008.66
2023-03-19T21:24:26.110Z,101002.59
2023-03-19T21:26:57.016Z,101003.34
2023-03-19T21:29:33.227Z,100998.00
2023-03-19T21:32:04.599Z,100999.97
2023-03-19T21:34:35.000Z,100980.75
2023-03-19T21:37:06.236Z,101006.09
2023-03-19T21:39:39.297Z,100998.22
2023-03-19T21:42:11.018Z,101008.34
2023-03-19T21:44:42.534Z,100999.00
2023-03-19T21:47:16.429Z,100995.31
2023-03-19T21:49:48.499Z,100999.75
2023-03-19T21:52:22.061Z,100999.88
2023-03-19T21:54:55.996Z,100998.22
2023-03-19T21:57:27.592Z,100973.63
2023-03-19T21:59:58.551Z,100999.41
2023-03-19T22:02:43.607Z,101001.19
2023-03-19T22:05:27.247Z,101011.44
2023-03-19T22:07:58.620Z,101016.50
2023-03-19T22:10:33.022Z,101011.44
2023-03-19T22:13:03.964Z,101012.91
2023-03-19T22:15:37.586Z,101013.69
2023-03-19T22:18:15.798Z,100991.19
2023-03-19T22:20:47.165Z,101004.81
2023-03-19T22:23:18.268Z,101004.25
2023-03-19T22:25:54.042Z,101009.56
2023-03-19T22:28:32.503Z,101014.50
2023-03-19T22:31:05.310Z,101012.69
2023-03-19T22:33:36.441Z,101013.59
2023-03-19T22:36:07.451Z,101006.00
2023-03-19T22:38:38.088Z,101007.63
2023-03-19T22:41:18.377Z,101008.53
2023-03-19T22:43:49.272Z,101003.09
2023-03-19T22:46:26.124Z,100998.34
2023-03-19T22:48:57.961Z,101013.94
2023-03-19T22:51:30.711Z,101017.47
2023-03-19T22:54:01.495Z,101020.28
2023-03-19T22:56:34.610Z,101016.00
2023-03-19T22:59:05.551Z,101012.00
2023-03-19T23:01:41.500Z,101024.97
2023-03-19T23:04:21.335Z,101026.31
2023-03-19T23:06:53.009Z,101023.88
2023-03-19T23:09:26.120Z,101020.63
2023-03-19T23:12:00.153Z,101017.25
2023-03-19T23:14:32.108Z,101017.16
2023-03-19T23:17:06.753Z,101021.16
2023-03-19T23:19:39.680Z,101019.84
2023-03-19T23:22:16.858Z,101025.06
2023-03-19T23:24:47.618Z,101003.19
2023-03-19T23:27:26.376Z,101025.84
2023-03-19T23:29:57.383Z,101030.94
2023-03-19T23:32:29.017Z,101025.44
2023-03-19T23:35:01.869Z,101025.44
2023-03-19T23:37:34.769Z,101031.09
2023-03-19T23:40:05.484Z,101046.81
2023-03-19T23:42:39.757Z,101043.28
2023-03-19T23:45:24.761Z,101047.13
2023-03-19T23:47:55.397Z,101045.78
2023-03-19T23:50:26.161Z,101055.56
2023-03-19T23:52:56.606Z,101063.28
2023-03-19T23:55:36.723Z,101063.41
2023-03-19T23:58:11.103Z,101026.06
